sensor_id;sensor_type;location;lat;lon;timestamp;P1;durP1;ratioP1;P2;durP2;ratioP2
32760;SDS011;19126;47.472;7.850;2022-07-10T00:00:32;4.47;;;3.15;;
32760;SDS011;19126;47.472;7.850;2022-07-10T00:03:01;6.75;;;3.67;;
32760;SDS011;19126;47.472;7.850;2022-07-10T00:05:29;7.43;;;3.97;;
32760;SDS011;19126;47.472;7.850;2022-07-10T00:07:58;5.35;;;3.60;;
32760;SDS011;19126;47.472;7.850;2022-07-10T00:10:25;4.78;;;3.50;;
32760;SDS011;19126;47.472;7.850;2022-07-10T00:12:53;12.63;;;3.88;;
32760;SDS011;19126;47.472;7.850;2022-07-10T00:15:21;7.70;;;3.35;;
32760;SDS011;19126;47.472;7.850;2022-07-10T00:17:49;8.38;;;3.50;;
32760;SDS011;19126;47.472;7.850;2022-07-10T00:20:16;6.75;;;3.22;;
32760;SDS011;19126;47.472;7.850;2022-07-10T00:22:44;5.53;;;3.67;;
32760;SDS011;19126;47.472;7.850;2022-07-10T00:25:12;9.40;;;3.28;;
32760;SDS011;19126;47.472;7.850;2022-07-10T00:27:41;7.82;;;3.75;;
32760;SDS011;19126;47.472;7.850;2022-07-10T00:30:09;9.18;;;4.22;;
32760;SDS011;19126;47.472;7.850;2022-07-10T00:32:37;5.38;;;3.55;;
32760;SDS011;19126;47.472;7.850;2022-07-10T00:35:04;9.07;;;3.47;;
32760;SDS011;19126;47.472;7.850;2022-07-10T00:37:33;7.22;;;3.90;;
32760;SDS011;19126;47.472;7.850;2022-07-10T00:40:01;5.57;;;3.20;;
32760;SDS011;19126;47.472;7.850;2022-07-10T00:42:32;6.22;;;3.75;;
32760;SDS011;19126;47.472;7.850;2022-07-10T00:44:59;14.10;;;3.47;;
32760;SDS011;19126;47.472;7.850;2022-07-10T00:47:26;7.18;;;3.53;;
32760;SDS011;19126;47.472;7.850;2022-07-10T00:49:54;4.22;;;3.50;;
32760;SDS011;19126;47.472;7.850;2022-07-10T00:52:21;6.32;;;3.88;;
32760;SDS011;19126;47.472;7.850;2022-07-10T00:54:49;7.65;;;4.15;;
32760;SDS011;19126;47.472;7.850;2022-07-10T00:57:17;6.70;;;3.88;;
32760;SDS011;19126;47.472;7.850;2022-07-10T00:59:47;9.73;;;4.13;;
32760;SDS011;19126;47.472;7.850;2022-07-10T01:02:15;9.85;;;4.32;;
32760;SDS011;19126;47.472;7.850;2022-07-10T01:04:43;8.98;;;4.15;;
32760;SDS011;19126;47.472;7.850;2022-07-10T01:07:11;6.00;;;4.15;;
32760;SDS011;19126;47.472;7.850;2022-07-10T01:09:41;6.72;;;3.95;;
32760;SDS011;19126;47.472;7.850;2022-07-10T01:12:08;7.75;;;4.47;;
32760;SDS011;19126;47.472;7.850;2022-07-10T01:14:38;7.20;;;4.93;;
32760;SDS011;19126;47.472;7.850;2022-07-10T01:17:08;7.55;;;5.05;;
32760;SDS011;19126;47.472;7.850;2022-07-10T01:19:37;5.65;;;4.22;;
32760;SDS011;19126;47.472;7.850;2022-07-10T01:22:05;10.15;;;4.30;;
32760;SDS011;19126;47.472;7.850;2022-07-10T01:24:33;13.30;;;4.15;;
32760;SDS011;19126;47.472;7.850;2022-07-10T01:27:00;6.82;;;4.60;;
32760;SDS011;19126;47.472;7.850;2022-07-10T01:29:28;6.40;;;4.55;;
32760;SDS011;19126;47.472;7.850;2022-07-10T01:31:55;8.27;;;5.10;;
32760;SDS011;19126;47.472;7.850;2022-07-10T01:34:25;9.48;;;4.80;;
32760;SDS011;19126;47.472;7.850;2022-07-10T01:36:52;11.63;;;4.70;;
32760;SDS011;19126;47.472;7.850;2022-07-10T01:39:21;7.95;;;5.22;;
32760;SDS011;19126;47.472;7.850;2022-07-10T01:41:48;9.27;;;4.45;;
32760;SDS011;19126;47.472;7.850;2022-07-10T01:44:15;9.40;;;5.60;;
32760;SDS011;19126;47.472;7.850;2022-07-10T01:46:43;10.00;;;5.63;;
32760;SDS011;19126;47.472;7.850;2022-07-10T01:49:11;9.63;;;4.53;;
32760;SDS011;19126;47.472;7.850;2022-07-10T01:51:38;6.35;;;4.25;;
32760;SDS011;19126;47.472;7.850;2022-07-10T01:54:06;8.50;;;5.22;;
32760;SDS011;19126;47.472;7.850;2022-07-10T01:56:34;11.48;;;4.75;;
32760;SDS011;19126;47.472;7.850;2022-07-10T01:59:03;9.48;;;5.10;;
32760;SDS011;19126;47.472;7.850;2022-07-10T02:01:30;10.10;;;4.97;;
32760;SDS011;19126;47.472;7.850;2022-07-10T02:03:58;9.68;;;5.30;;
32760;SDS011;19126;47.472;7.850;2022-07-10T02:06:43;8.45;;;5.13;;
32760;SDS011;19126;47.472;7.850;2022-07-10T02:09:10;14.38;;;4.97;;
32760;SDS011;19126;47.472;7.850;2022-07-10T02:11:41;7.75;;;5.65;;
32760;SDS011;19126;47.472;7.850;2022-07-10T02:14:08;10.75;;;5.15;;
32760;SDS011;19126;47.472;7.850;2022-07-10T02:16:35;8.32;;;4.75;;
32760;SDS011;19126;47.472;7.850;2022-07-10T02:19:03;9.90;;;4.60;;
32760;SDS011;19126;47.472;7.850;2022-07-10T02:21:30;9.73;;;5.32;;
32760;SDS011;19126;47.472;7.850;2022-07-10T02:23:57;9.55;;;5.63;;
32760;SDS011;19126;47.472;7.850;2022-07-10T02:26:25;6.88;;;5.15;;
32760;SDS011;19126;47.472;7.850;2022-07-10T02:28:53;8.02;;;4.72;;
32760;SDS011;19126;47.472;7.850;2022-07-10T02:31:20;9.38;;;4.95;;
32760;SDS011;19126;47.472;7.850;2022-07-10T02:33:48;6.70;;;4.75;;
32760;SDS011;19126;47.472;7.850;2022-07-10T02:36:15;8.40;;;4.75;;
32760;SDS011;19126;47.472;7.850;2022-07-10T02:38:42;9.10;;;4.68;;
32760;SDS011;19126;47.472;7.850;2022-07-10T02:41:09;7.70;;;4.88;;
32760;SDS011;19126;47.472;7.850;2022-07-10T02:43:36;5.38;;;4.13;;
32760;SDS011;19126;47.472;7.850;2022-07-10T02:46:05;8.50;;;5.03;;
32760;SDS011;19126;47.472;7.850;2022-07-10T02:48:32;9.25;;;5.35;;
32760;SDS011;19126;47.472;7.850;2022-07-10T02:50:59;9.63;;;4.50;;
32760;SDS011;19126;47.472;7.850;2022-07-10T02:53:26;11.02;;;5.35;;
32760;SDS011;19126;47.472;7.850;2022-07-10T02:55:54;14.68;;;5.47;;
32760;SDS011;19126;47.472;7.850;2022-07-10T02:58:21;10.60;;;4.95;;
32760;SDS011;19126;47.472;7.850;2022-07-10T03:00:48;9.90;;;5.43;;
32760;SDS011;19126;47.472;7.850;2022-07-10T03:03:17;8.25;;;5.55;;
32760;SDS011;19126;47.472;7.850;2022-07-10T03:05:44;7.72;;;5.53;;
32760;SDS011;19126;47.472;7.850;2022-07-10T03:08:11;9.80;;;5.50;;
32760;SDS011;19126;47.472;7.850;2022-07-10T03:10:38;12.05;;;5.57;;
32760;SDS011;19126;47.472;7.850;2022-07-10T03:13:06;12.82;;;6.18;;
32760;SDS011;19126;47.472;7.850;2022-07-10T03:15:34;12.38;;;5.78;;
32760;SDS011;19126;47.472;7.850;2022-07-10T03:18:01;9.32;;;5.80;;
32760;SDS011;19126;47.472;7.850;2022-07-10T03:20:30;11.07;;;5.72;;
32760;SDS011;19126;47.472;7.850;2022-07-10T03:22:57;7.38;;;5.22;;
32760;SDS011;19126;47.472;7.850;2022-07-10T03:25:24;7.63;;;5.68;;
32760;SDS011;19126;47.472;7.850;2022-07-10T03:27:51;9.10;;;6.03;;
32760;SDS011;19126;47.472;7.850;2022-07-10T03:30:18;9.90;;;5.78;;
32760;SDS011;19126;47.472;7.850;2022-07-10T03:32:46;9.30;;;5.75;;
32760;SDS011;19126;47.472;7.850;2022-07-10T03:35:13;14.98;;;5.72;;
32760;SDS011;19126;47.472;7.850;2022-07-10T03:37:41;10.30;;;6.70;;
32760;SDS011;19126;47.472;7.850;2022-07-10T03:40:09;7.53;;;5.35;;
32760;SDS011;19126;47.472;7.850;2022-07-10T03:42:37;10.73;;;5.22;;
32760;SDS011;19126;47.472;7.850;2022-07-10T03:45:04;8.95;;;5.95;;
32760;SDS011;19126;47.472;7.850;2022-07-10T03:47:32;10.07;;;5.85;;
32760;SDS011;19126;47.472;7.850;2022-07-10T03:50:00;9.57;;;5.95;;
32760;SDS011;19126;47.472;7.850;2022-07-10T03:52:27;14.95;;;5.80;;
32760;SDS011;19126;47.472;7.850;2022-07-10T03:54:55;15.63;;;5.65;;
32760;SDS011;19126;47.472;7.850;2022-07-10T03:57:22;11.55;;;5.90;;
32760;SDS011;19126;47.472;7.850;2022-07-10T04:00:08;9.63;;;6.35;;
32760;SDS011;19126;47.472;7.850;2022-07-10T04:02:36;9.80;;;6.25;;
32760;SDS011;19126;47.472;7.850;2022-07-10T04:05:04;14.45;;;6.43;;
32760;SDS011;19126;47.472;7.850;2022-07-10T04:07:33;12.40;;;6.70;;
32760;SDS011;19126;47.472;7.850;2022-07-10T04:10:01;13.18;;;6.45;;
32760;SDS011;19126;47.472;7.850;2022-07-10T04:12:29;10.02;;;7.55;;
32760;SDS011;19126;47.472;7.850;2022-07-10T04:14:57;11.23;;;6.97;;
32760;SDS011;19126;47.472;7.850;2022-07-10T04:17:24;10.73;;;7.40;;
32760;SDS011;19126;47.472;7.850;2022-07-10T04:19:51;11.15;;;6.88;;
32760;SDS011;19126;47.472;7.850;2022-07-10T04:22:18;13.48;;;7.13;;
32760;SDS011;19126;47.472;7.850;2022-07-10T04:24:45;10.75;;;6.38;;
32760;SDS011;19126;47.472;7.850;2022-07-10T04:27:14;10.65;;;6.07;;
32760;SDS011;19126;47.472;7.850;2022-07-10T04:29:42;14.30;;;7.43;;
32760;SDS011;19126;47.472;7.850;2022-07-10T04:32:09;9.25;;;7.15;;
32760;SDS011;19126;47.472;7.850;2022-07-10T04:34:36;10.10;;;7.30;;
32760;SDS011;19126;47.472;7.850;2022-07-10T04:37:04;10.65;;;6.32;;
32760;SDS011;19126;47.472;7.850;2022-07-10T04:39:32;9.40;;;6.78;;
32760;SDS011;19126;47.472;7.850;2022-07-10T04:42:00;8.98;;;6.20;;
32760;SDS011;19126;47.472;7.850;2022-07-10T04:44:29;11.55;;;6.72;;
32760;SDS011;19126;47.472;7.850;2022-07-10T04:46:57;12.40;;;7.15;;
32760;SDS011;19126;47.472;7.850;2022-07-10T04:49:24;13.20;;;7.03;;
32760;SDS011;19126;47.472;7.850;2022-07-10T04:51:51;9.27;;;6.88;;
32760;SDS011;19126;47.472;7.850;2022-07-10T04:54:19;13.93;;;6.93;;
32760;SDS011;19126;47.472;7.850;2022-07-10T04:56:46;11.38;;;6.70;;
32760;SDS011;19126;47.472;7.850;2022-07-10T04:59:13;12.32;;;6.80;;
32760;SDS011;19126;47.472;7.850;2022-07-10T05:01:42;12.60;;;7.03;;
32760;SDS011;19126;47.472;7.850;2022-07-10T05:04:11;9.23;;;7.43;;
32760;SDS011;19126;47.472;7.850;2022-07-10T05:06:39;11.95;;;7.60;;
32760;SDS011;19126;47.472;7.850;2022-07-10T05:09:06;12.10;;;8.02;;
32760;SDS011;19126;47.472;7.850;2022-07-10T05:11:33;12.80;;;7.15;;
32760;SDS011;19126;47.472;7.850;2022-07-10T05:14:00;10.68;;;7.07;;
32760;SDS011;19126;47.472;7.850;2022-07-10T05:16:28;17.10;;;8.02;;
32760;SDS011;19126;47.472;7.850;2022-07-10T05:18:56;13.15;;;7.47;;
32760;SDS011;19126;47.472;7.850;2022-07-10T05:21:23;9.02;;;7.40;;
32760;SDS011;19126;47.472;7.850;2022-07-10T05:23:51;11.77;;;7.47;;
32760;SDS011;19126;47.472;7.850;2022-07-10T05:26:18;15.73;;;9.35;;
32760;SDS011;19126;47.472;7.850;2022-07-10T05:28:46;14.55;;;8.20;;
32760;SDS011;19126;47.472;7.850;2022-07-10T05:31:13;15.20;;;8.25;;
32760;SDS011;19126;47.472;7.850;2022-07-10T05:33:40;9.13;;;7.20;;
32760;SDS011;19126;47.472;7.850;2022-07-10T05:36:09;15.18;;;7.32;;
32760;SDS011;19126;47.472;7.850;2022-07-10T05:38:36;8.50;;;6.70;;
32760;SDS011;19126;47.472;7.850;2022-07-10T05:41:03;10.13;;;6.28;;
32760;SDS011;19126;47.472;7.850;2022-07-10T05:43:31;7.65;;;6.10;;
32760;SDS011;19126;47.472;7.850;2022-07-10T05:45:58;9.00;;;6.13;;
32760;SDS011;19126;47.472;7.850;2022-07-10T05:48:25;12.93;;;6.63;;
32760;SDS011;19126;47.472;7.850;2022-07-10T05:50:52;13.82;;;6.70;;
32760;SDS011;19126;47.472;7.850;2022-07-10T05:53:21;13.07;;;6.45;;
32760;SDS011;19126;47.472;7.850;2022-07-10T05:55:48;11.88;;;6.28;;
32760;SDS011;19126;47.472;7.850;2022-07-10T05:58:16;8.77;;;6.20;;
32760;SDS011;19126;47.472;7.850;2022-07-10T06:00:43;16.55;;;5.50;;
32760;SDS011;19126;47.472;7.850;2022-07-10T06:03:11;6.88;;;5.53;;
32760;SDS011;19126;47.472;7.850;2022-07-10T06:05:38;8.73;;;5.35;;
32760;SDS011;19126;47.472;7.850;2022-07-10T06:08:05;10.90;;;5.30;;
32760;SDS011;19126;47.472;7.850;2022-07-10T06:10:34;14.93;;;5.68;;
32760;SDS011;19126;47.472;7.850;2022-07-10T06:13:01;13.40;;;5.47;;
32760;SDS011;19126;47.472;7.850;2022-07-10T06:15:28;14.65;;;5.65;;
32760;SDS011;19126;47.472;7.850;2022-07-10T06:17:56;12.75;;;5.97;;
32760;SDS011;19126;47.472;7.850;2022-07-10T06:20:24;12.15;;;6.03;;
32760;SDS011;19126;47.472;7.850;2022-07-10T06:22:52;10.93;;;6.03;;
32760;SDS011;19126;47.472;7.850;2022-07-10T06:25:19;11.05;;;5.60;;
32760;SDS011;19126;47.472;7.850;2022-07-10T06:27:48;7.45;;;5.97;;
32760;SDS011;19126;47.472;7.850;2022-07-10T06:30:15;8.27;;;5.53;;
32760;SDS011;19126;47.472;7.850;2022-07-10T06:32:42;15.90;;;5.97;;
32760;SDS011;19126;47.472;7.850;2022-07-10T06:35:10;12.48;;;5.82;;
32760;SDS011;19126;47.472;7.850;2022-07-10T06:37:37;7.05;;;5.93;;
32760;SDS011;19126;47.472;7.850;2022-07-10T06:40:05;17.45;;;5.90;;
32760;SDS011;19126;47.472;7.850;2022-07-10T06:42:36;7.73;;;5.83;;
32760;SDS011;19126;47.472;7.850;2022-07-10T06:45:05;7.75;;;5.15;;
32760;SDS011;19126;47.472;7.850;2022-07-10T06:47:33;7.43;;;4.80;;
32760;SDS011;19126;47.472;7.850;2022-07-10T06:50:18;7.18;;;5.60;;
32760;SDS011;19126;47.472;7.850;2022-07-10T06:52:46;8.18;;;5.07;;
32760;SDS011;19126;47.472;7.850;2022-07-10T06:55:13;6.03;;;4.75;;
32760;SDS011;19126;47.472;7.850;2022-07-10T06:57:41;9.43;;;5.25;;
32760;SDS011;19126;47.472;7.850;2022-07-10T07:00:10;9.70;;;4.97;;
32760;SDS011;19126;47.472;7.850;2022-07-10T07:02:38;12.20;;;5.18;;
32760;SDS011;19126;47.472;7.850;2022-07-10T07:05:05;6.60;;;4.78;;
32760;SDS011;19126;47.472;7.850;2022-07-10T07:07:34;7.18;;;5.07;;
32760;SDS011;19126;47.472;7.850;2022-07-10T07:10:01;8.55;;;5.00;;
32760;SDS011;19126;47.472;7.850;2022-07-10T07:12:30;7.88;;;5.00;;
32760;SDS011;19126;47.472;7.850;2022-07-10T07:14:58;9.10;;;5.80;;
32760;SDS011;19126;47.472;7.850;2022-07-10T07:17:26;7.28;;;5.05;;
32760;SDS011;19126;47.472;7.850;2022-07-10T07:19:59;7.95;;;4.85;;
32760;SDS011;19126;47.472;7.850;2022-07-10T07:22:44;5.18;;;4.68;;
32760;SDS011;19126;47.472;7.850;2022-07-10T07:25:29;10.70;;;4.63;;
32760;SDS011;19126;47.472;7.850;2022-07-10T07:27:56;5.75;;;5.00;;
32760;SDS011;19126;47.472;7.850;2022-07-10T07:30:23;10.02;;;4.88;;
32760;SDS011;19126;47.472;7.850;2022-07-10T07:32:52;5.57;;;4.82;;
32760;SDS011;19126;47.472;7.850;2022-07-10T07:35:19;8.65;;;5.10;;
32760;SDS011;19126;47.472;7.850;2022-07-10T07:37:47;11.13;;;5.13;;
32760;SDS011;19126;47.472;7.850;2022-07-10T07:40:16;6.72;;;4.65;;
32760;SDS011;19126;47.472;7.850;2022-07-10T07:42:48;16.85;;;5.35;;
32760;SDS011;19126;47.472;7.850;2022-07-10T07:45:16;7.47;;;4.82;;
32760;SDS011;19126;47.472;7.850;2022-07-10T07:47:44;7.47;;;4.28;;
32760;SDS011;19126;47.472;7.850;2022-07-10T07:50:15;8.27;;;5.10;;
32760;SDS011;19126;47.472;7.850;2022-07-10T07:52:44;12.70;;;5.20;;
32760;SDS011;19126;47.472;7.850;2022-07-10T07:55:13;8.52;;;4.55;;
32760;SDS011;19126;47.472;7.850;2022-07-10T07:57:42;8.13;;;4.43;;
32760;SDS011;19126;47.472;7.850;2022-07-10T08:00:10;13.25;;;4.80;;
32760;SDS011;19126;47.472;7.850;2022-07-10T08:02:39;8.15;;;4.47;;
32760;SDS011;19126;47.472;7.850;2022-07-10T08:05:07;7.78;;;4.72;;
32760;SDS011;19126;47.472;7.850;2022-07-10T08:07:37;11.30;;;5.82;;
32760;SDS011;19126;47.472;7.850;2022-07-10T08:10:07;8.02;;;5.95;;
32760;SDS011;19126;47.472;7.850;2022-07-10T08:12:38;10.15;;;5.50;;
32760;SDS011;19126;47.472;7.850;2022-07-10T08:15:06;14.45;;;4.88;;
32760;SDS011;19126;47.472;7.850;2022-07-10T08:17:35;7.90;;;4.68;;
32760;SDS011;19126;47.472;7.850;2022-07-10T08:20:02;14.20;;;5.22;;
32760;SDS011;19126;47.472;7.850;2022-07-10T08:22:31;9.30;;;5.95;;
32760;SDS011;19126;47.472;7.850;2022-07-10T08:25:00;6.07;;;4.50;;
32760;SDS011;19126;47.472;7.850;2022-07-10T08:27:27;7.32;;;4.78;;
32760;SDS011;19126;47.472;7.850;2022-07-10T08:29:54;9.43;;;5.38;;
32760;SDS011;19126;47.472;7.850;2022-07-10T08:32:21;10.52;;;5.45;;
32760;SDS011;19126;47.472;7.850;2022-07-10T08:34:48;9.90;;;5.53;;
32760;SDS011;19126;47.472;7.850;2022-07-10T08:37:15;11.98;;;4.43;;
32760;SDS011;19126;47.472;7.850;2022-07-10T08:39:44;10.70;;;5.05;;
32760;SDS011;19126;47.472;7.850;2022-07-10T08:42:13;6.55;;;4.47;;
32760;SDS011;19126;47.472;7.850;2022-07-10T08:44:44;8.38;;;4.35;;
32760;SDS011;19126;47.472;7.850;2022-07-10T08:47:11;12.48;;;4.75;;
32760;SDS011;19126;47.472;7.850;2022-07-10T08:49:44;15.55;;;5.10;;
32760;SDS011;19126;47.472;7.850;2022-07-10T08:52:17;11.57;;;4.40;;
32760;SDS011;19126;47.472;7.850;2022-07-10T08:54:52;9.10;;;4.22;;
32760;SDS011;19126;47.472;7.850;2022-07-10T08:57:22;7.82;;;5.00;;
32760;SDS011;19126;47.472;7.850;2022-07-10T08:59:50;10.35;;;4.63;;
32760;SDS011;19126;47.472;7.850;2022-07-10T09:02:17;14.18;;;4.50;;
32760;SDS011;19126;47.472;7.850;2022-07-10T09:04:44;5.68;;;4.07;;
32760;SDS011;19126;47.472;7.850;2022-07-10T09:07:12;8.90;;;4.78;;
32760;SDS011;19126;47.472;7.850;2022-07-10T09:09:50;8.07;;;4.65;;
32760;SDS011;19126;47.472;7.850;2022-07-10T09:12:20;5.63;;;4.50;;
32760;SDS011;19126;47.472;7.850;2022-07-10T09:14:49;9.43;;;3.85;;
32760;SDS011;19126;47.472;7.850;2022-07-10T09:17:17;7.47;;;4.53;;
32760;SDS011;19126;47.472;7.850;2022-07-10T09:19:44;12.25;;;4.28;;
32760;SDS011;19126;47.472;7.850;2022-07-10T09:22:12;5.47;;;4.60;;
32760;SDS011;19126;47.472;7.850;2022-07-10T09:24:40;6.35;;;4.47;;
32760;SDS011;19126;47.472;7.850;2022-07-10T09:27:10;10.98;;;4.35;;
32760;SDS011;19126;47.472;7.850;2022-07-10T09:29:50;7.38;;;4.32;;
32760;SDS011;19126;47.472;7.850;2022-07-10T09:32:20;7.22;;;4.30;;
32760;SDS011;19126;47.472;7.850;2022-07-10T09:34:48;6.82;;;4.15;;
32760;SDS011;19126;47.472;7.850;2022-07-10T09:37:38;7.03;;;3.80;;
32760;SDS011;19126;47.472;7.850;2022-07-10T09:40:07;7.22;;;3.58;;
32760;SDS011;19126;47.472;7.850;2022-07-10T09:42:36;10.98;;;3.90;;
32760;SDS011;19126;47.472;7.850;2022-07-10T09:45:18;7.13;;;3.55;;
32760;SDS011;19126;47.472;7.850;2022-07-10T09:47:53;5.38;;;3.35;;
32760;SDS011;19126;47.472;7.850;2022-07-10T09:50:24;5.88;;;3.53;;
32760;SDS011;19126;47.472;7.850;2022-07-10T09:52:53;6.15;;;3.50;;
32760;SDS011;19126;47.472;7.850;2022-07-10T09:55:23;8.10;;;3.72;;
32760;SDS011;19126;47.472;7.850;2022-07-10T09:57:55;8.10;;;4.10;;
32760;SDS011;19126;47.472;7.850;2022-07-10T10:00:26;7.15;;;3.42;;
32760;SDS011;19126;47.472;7.850;2022-07-10T10:02:55;5.23;;;3.00;;
32760;SDS011;19126;47.472;7.850;2022-07-10T10:05:33;9.75;;;3.67;;
32760;SDS011;19126;47.472;7.850;2022-07-10T10:08:06;7.40;;;2.60;;
32760;SDS011;19126;47.472;7.850;2022-07-10T10:10:40;5.47;;;2.85;;
32760;SDS011;19126;47.472;7.850;2022-07-10T10:13:12;6.32;;;3.33;;
32760;SDS011;19126;47.472;7.850;2022-07-10T10:18:15;10.38;;;3.53;;
32760;SDS011;19126;47.472;7.850;2022-07-10T10:20:45;3.17;;;2.30;;
32760;SDS011;19126;47.472;7.850;2022-07-10T10:23:13;7.22;;;3.38;;
32760;SDS011;19126;47.472;7.850;2022-07-10T10:25:43;4.63;;;3.00;;
32760;SDS011;19126;47.472;7.850;2022-07-10T10:28:12;5.35;;;3.00;;
32760;SDS011;19126;47.472;7.850;2022-07-10T10:30:41;4.63;;;3.15;;
32760;SDS011;19126;47.472;7.850;2022-07-10T10:36:13;7.10;;;4.00;;
32760;SDS011;19126;47.472;7.850;2022-07-10T10:39:10;10.55;;;3.00;;
32760;SDS011;19126;47.472;7.850;2022-07-10T10:41:39;7.13;;;3.22;;
32760;SDS011;19126;47.472;7.850;2022-07-10T10:47:05;10.18;;;4.05;;
32760;SDS011;19126;47.472;7.850;2022-07-10T10:50:00;8.93;;;3.13;;
32760;SDS011;19126;47.472;7.850;2022-07-10T10:52:27;4.88;;;2.75;;
32760;SDS011;19126;47.472;7.850;2022-07-10T10:55:07;8.18;;;2.95;;
32760;SDS011;19126;47.472;7.850;2022-07-10T10:57:43;6.05;;;3.53;;
32760;SDS011;19126;47.472;7.850;2022-07-10T11:03:16;6.30;;;2.80;;
32760;SDS011;19126;47.472;7.850;2022-07-10T11:05:48;7.88;;;3.92;;
32760;SDS011;19126;47.472;7.850;2022-07-10T11:08:35;7.60;;;3.20;;
32760;SDS011;19126;47.472;7.850;2022-07-10T11:14:06;11.32;;;3.03;;
32760;SDS011;19126;47.472;7.850;2022-07-10T11:16:37;6.17;;;3.10;;
32760;SDS011;19126;47.472;7.850;2022-07-10T11:19:19;4.78;;;2.65;;
32760;SDS011;19126;47.472;7.850;2022-07-10T11:21:54;8.80;;;2.80;;
32760;SDS011;19126;47.472;7.850;2022-07-10T11:24:41;6.57;;;2.63;;
32760;SDS011;19126;47.472;7.850;2022-07-10T11:27:25;7.35;;;2.67;;
32760;SDS011;19126;47.472;7.850;2022-07-10T11:30:03;10.00;;;3.05;;
32760;SDS011;19126;47.472;7.850;2022-07-10T11:32:32;7.63;;;2.67;;
32760;SDS011;19126;47.472;7.850;2022-07-10T11:35:00;7.57;;;2.45;;
32760;SDS011;19126;47.472;7.850;2022-07-10T11:37:29;4.10;;;2.45;;
32760;SDS011;19126;47.472;7.850;2022-07-10T11:40:09;7.22;;;2.20;;
32760;SDS011;19126;47.472;7.850;2022-07-10T11:42:51;6.30;;;2.47;;
32760;SDS011;19126;47.472;7.850;2022-07-10T11:48:04;4.43;;;2.10;;
32760;SDS011;19126;47.472;7.850;2022-07-10T11:50:34;5.25;;;2.10;;
32760;SDS011;19126;47.472;7.850;2022-07-10T11:53:04;5.78;;;1.95;;
32760;SDS011;19126;47.472;7.850;2022-07-10T11:55:31;4.97;;;1.98;;
32760;SDS011;19126;47.472;7.850;2022-07-10T11:58:12;6.85;;;2.15;;
32760;SDS011;19126;47.472;7.850;2022-07-10T12:00:40;4.45;;;2.20;;
32760;SDS011;19126;47.472;7.850;2022-07-10T12:03:18;5.57;;;2.13;;
32760;SDS011;19126;47.472;7.850;2022-07-10T12:05:46;3.92;;;1.80;;
32760;SDS011;19126;47.472;7.850;2022-07-10T12:08:16;4.20;;;1.70;;
32760;SDS011;19126;47.472;7.850;2022-07-10T12:10:44;5.20;;;2.13;;
32760;SDS011;19126;47.472;7.850;2022-07-10T12:13:12;3.30;;;2.15;;
32760;SDS011;19126;47.472;7.850;2022-07-10T12:15:40;5.05;;;2.05;;
32760;SDS011;19126;47.472;7.850;2022-07-10T12:18:11;3.15;;;2.03;;
32760;SDS011;19126;47.472;7.850;2022-07-10T12:20:43;7.63;;;1.77;;
32760;SDS011;19126;47.472;7.850;2022-07-10T12:23:13;5.30;;;2.25;;
32760;SDS011;19126;47.472;7.850;2022-07-10T12:25:43;2.95;;;1.58;;
32760;SDS011;19126;47.472;7.850;2022-07-10T12:28:14;6.28;;;2.45;;
32760;SDS011;19126;47.472;7.850;2022-07-10T12:30:42;2.53;;;1.60;;
32760;SDS011;19126;47.472;7.850;2022-07-10T12:33:11;7.10;;;2.40;;
32760;SDS011;19126;47.472;7.850;2022-07-10T12:35:51;3.97;;;1.80;;
32760;SDS011;19126;47.472;7.850;2022-07-10T12:38:22;4.53;;;1.85;;
32760;SDS011;19126;47.472;7.850;2022-07-10T12:41:05;2.53;;;1.42;;
32760;SDS011;19126;47.472;7.850;2022-07-10T12:43:33;5.47;;;1.63;;
32760;SDS011;19126;47.472;7.850;2022-07-10T12:46:11;3.58;;;1.58;;
32760;SDS011;19126;47.472;7.850;2022-07-10T12:48:41;7.40;;;1.80;;
32760;SDS011;19126;47.472;7.850;2022-07-10T12:51:19;4.32;;;1.52;;
32760;SDS011;19126;47.472;7.850;2022-07-10T12:53:51;7.18;;;1.83;;
32760;SDS011;19126;47.472;7.850;2022-07-10T12:56:32;4.03;;;1.85;;
32760;SDS011;19126;47.472;7.850;2022-07-10T12:59:03;8.32;;;1.95;;
32760;SDS011;19126;47.472;7.850;2022-07-10T13:01:39;6.97;;;1.27;;
32760;SDS011;19126;47.472;7.850;2022-07-10T13:04:09;2.47;;;1.70;;
32760;SDS011;19126;47.472;7.850;2022-07-10T13:06:37;3.60;;;1.55;;
32760;SDS011;19126;47.472;7.850;2022-07-10T13:09:18;5.82;;;1.40;;
32760;SDS011;19126;47.472;7.850;2022-07-10T13:11:48;5.20;;;1.30;;
32760;SDS011;19126;47.472;7.850;2022-07-10T13:14:17;5.82;;;1.30;;
32760;SDS011;19126;47.472;7.850;2022-07-10T13:16:44;4.40;;;1.70;;
32760;SDS011;19126;47.472;7.850;2022-07-10T13:19:11;3.67;;;1.70;;
32760;SDS011;19126;47.472;7.850;2022-07-10T13:21:38;3.25;;;1.25;;
32760;SDS011;19126;47.472;7.850;2022-07-10T13:24:06;3.25;;;1.40;;
32760;SDS011;19126;47.472;7.850;2022-07-10T13:26:33;12.38;;;1.65;;
32760;SDS011;19126;47.472;7.850;2022-07-10T13:29:02;2.65;;;1.42;;
32760;SDS011;19126;47.472;7.850;2022-07-10T13:31:29;3.55;;;1.30;;
32760;SDS011;19126;47.472;7.850;2022-07-10T13:33:56;5.65;;;1.30;;
32760;SDS011;19126;47.472;7.850;2022-07-10T13:36:23;2.92;;;1.63;;
32760;SDS011;19126;47.472;7.850;2022-07-10T13:38:50;3.22;;;1.30;;
32760;SDS011;19126;47.472;7.850;2022-07-10T13:41:19;3.75;;;1.30;;
32760;SDS011;19126;47.472;7.850;2022-07-10T13:43:47;3.15;;;1.30;;
32760;SDS011;19126;47.472;7.850;2022-07-10T13:46:15;4.88;;;1.25;;
32760;SDS011;19126;47.472;7.850;2022-07-10T13:48:42;4.25;;;1.05;;
32760;SDS011;19126;47.472;7.850;2022-07-10T13:51:10;2.25;;;1.33;;
32760;SDS011;19126;47.472;7.850;2022-07-10T13:53:37;3.95;;;1.10;;
32760;SDS011;19126;47.472;7.850;2022-07-10T13:56:05;4.88;;;1.05;;
32760;SDS011;19126;47.472;7.850;2022-07-10T13:58:34;4.72;;;1.10;;
32760;SDS011;19126;47.472;7.850;2022-07-10T14:01:01;2.50;;;1.30;;
32760;SDS011;19126;47.472;7.850;2022-07-10T14:03:30;6.25;;;1.27;;
32760;SDS011;19126;47.472;7.850;2022-07-10T14:05:58;7.32;;;1.50;;
32760;SDS011;19126;47.472;7.850;2022-07-10T14:08:25;3.47;;;1.08;;
32760;SDS011;19126;47.472;7.850;2022-07-10T14:10:52;3.10;;;1.15;;
32760;SDS011;19126;47.472;7.850;2022-07-10T14:13:20;2.20;;;1.10;;
32760;SDS011;19126;47.472;7.850;2022-07-10T14:15:47;2.55;;;1.63;;
32760;SDS011;19126;47.472;7.850;2022-07-10T14:18:14;4.43;;;0.98;;
32760;SDS011;19126;47.472;7.850;2022-07-10T14:21:01;4.63;;;1.08;;
32760;SDS011;19126;47.472;7.850;2022-07-10T14:23:28;1.10;;;1.00;;
32760;SDS011;19126;47.472;7.850;2022-07-10T14:25:56;7.43;;;1.27;;
32760;SDS011;19126;47.472;7.850;2022-07-10T14:28:24;8.88;;;1.33;;
32760;SDS011;19126;47.472;7.850;2022-07-10T14:30:51;4.22;;;1.00;;
32760;SDS011;19126;47.472;7.850;2022-07-10T14:33:18;3.60;;;0.98;;
32760;SDS011;19126;47.472;7.850;2022-07-10T14:35:46;1.05;;;0.90;;
32760;SDS011;19126;47.472;7.850;2022-07-10T14:38:14;2.10;;;0.80;;
32760;SDS011;19126;47.472;7.850;2022-07-10T14:40:41;1.10;;;1.00;;
32760;SDS011;19126;47.472;7.850;2022-07-10T14:43:09;3.60;;;0.80;;
32760;SDS011;19126;47.472;7.850;2022-07-10T14:45:36;4.32;;;1.00;;
32760;SDS011;19126;47.472;7.850;2022-07-10T14:48:03;0.93;;;0.70;;
32760;SDS011;19126;47.472;7.850;2022-07-10T14:50:31;2.38;;;1.00;;
32760;SDS011;19126;47.472;7.850;2022-07-10T14:52:59;1.75;;;1.10;;
32760;SDS011;19126;47.472;7.850;2022-07-10T14:55:28;0.70;;;0.70;;
32760;SDS011;19126;47.472;7.850;2022-07-10T14:57:55;1.55;;;0.82;;
32760;SDS011;19126;47.472;7.850;2022-07-10T15:00:22;1.08;;;0.80;;
32760;SDS011;19126;47.472;7.850;2022-07-10T15:02:49;1.85;;;0.77;;
32760;SDS011;19126;47.472;7.850;2022-07-10T15:05:17;1.15;;;0.85;;
32760;SDS011;19126;47.472;7.850;2022-07-10T15:07:44;0.90;;;0.70;;
32760;SDS011;19126;47.472;7.850;2022-07-10T15:10:11;3.58;;;1.30;;
32760;SDS011;19126;47.472;7.850;2022-07-10T15:12:42;3.15;;;0.93;;